createdAt,value
2019-04-10T00:00:15.473Z,6.80
2019-04-10T00:02:19.592Z,6.80
2019-04-10T00:04:23.344Z,6.70
2019-04-10T00:06:27.830Z,6.70
2019-04-10T00:08:32.449Z,6.60
2019-04-10T00:10:36.253Z,6.60
2019-04-10T00:12:40.437Z,6.60
2019-04-10T00:14:44.902Z,6.60
2019-04-10T00:16:48.901Z,6.60
2019-04-10T00:18:52.470Z,6.60
2019-04-10T00:20:55.270Z,6.60
2019-04-10T00:22:58.941Z,6.60
2019-04-10T00:25:02.501Z,6.70
2019-04-10T00:27:06.104Z,6.70
2019-04-10T00:29:09.923Z,6.70
2019-04-10T00:31:13.790Z,6.70
2019-04-10T00:33:18.725Z,6.60
2019-04-10T00:35:23.566Z,6.60
2019-04-10T00:37:30.296Z,6.70
2019-04-10T00:39:32.814Z,6.70
2019-04-10T00:41:36.557Z,6.60
2019-04-10T00:43:41.443Z,6.60
2019-04-10T00:45:45.961Z,6.70
2019-04-10T00:47:49.849Z,6.70
2019-04-10T00:49:53.693Z,6.70
2019-04-10T00:51:57.556Z,6.60
2019-04-10T00:54:01.441Z,6.60
2019-04-10T00:56:05.130Z,6.60
2019-04-10T00:58:07.918Z,6.60
2019-04-10T01:00:12.802Z,6.50
2019-04-10T01:02:16.546Z,6.50
2019-04-10T01:04:20.393Z,6.50
2019-04-10T01:06:24.157Z,6.50
2019-04-10T01:08:28.661Z,6.50
2019-04-10T01:10:32.461Z,6.50
2019-04-10T01:12:36.337Z,6.50
2019-04-10T01:14:40.120Z,6.50
2019-04-10T01:16:43.989Z,6.50
2019-04-10T01:18:47.853Z,6.50
2019-04-10T01:20:51.532Z,6.50
2019-04-10T01:22:55.204Z,6.50
2019-04-10T01:24:59.821Z,6.40
2019-04-10T01:27:03.499Z,6.40
2019-04-10T01:29:06.297Z,6.40
2019-04-10T01:31:10.818Z,6.30
2019-04-10T01:33:14.535Z,6.30
2019-04-10T01:35:18.175Z,6.20
2019-04-10T01:37:22.926Z,6.30
2019-04-10T01:39:28.521Z,6.30
2019-04-10T01:41:32.847Z,6.30
2019-04-10T01:43:37.164Z,6.30
2019-04-10T01:45:41.805Z,6.30
2019-04-10T01:47:45.643Z,6.30
2019-04-10T01:49:50.259Z,6.30
2019-04-10T01:51:53.903Z,6.20
2019-04-10T01:53:56.682Z,6.30
2019-04-10T01:56:00.266Z,6.20
2019-04-10T01:58:05.540Z,6.30
2019-04-10T02:00:11.132Z,6.30
2019-04-10T02:02:16.862Z,6.30
2019-04-10T02:04:20.624Z,6.20
2019-04-10T02:06:25.231Z,6.20
2019-04-10T02:08:29.844Z,6.20
2019-04-10T02:10:34.274Z,6.10
2019-04-10T02:12:38.850Z,6.10
2019-04-10T02:14:42.692Z,6.10
2019-04-10T02:16:47.242Z,6.20
2019-04-10T02:18:51.969Z,6.20
2019-04-10T02:20:55.703Z,6.20
2019-04-10T02:22:59.360Z,6.10
2019-04-10T02:25:03.456Z,6.10
2019-04-10T02:27:07.857Z,6.10
2019-04-10T02:29:11.546Z,6.10
2019-04-10T02:31:15.171Z,6.10
2019-04-10T02:33:18.846Z,6.00
2019-04-10T02:35:24.525Z,6.00
2019-04-10T02:37:27.728Z,6.10
2019-04-10T02:39:37.940Z,6.10
2019-04-10T02:41:38.517Z,6.00
2019-04-10T02:43:43.032Z,6.00
2019-04-10T02:45:47.015Z,6.00
2019-04-10T02:47:51.016Z,5.90
2019-04-10T02:49:56.558Z,5.90
2019-04-10T02:52:00.277Z,5.80
2019-04-10T02:54:05.073Z,5.70
2019-04-10T02:56:09.098Z,5.80
2019-04-10T02:58:14.182Z,5.70
2019-04-10T03:00:20.082Z,5.70
2019-04-10T03:02:24.302Z,5.70
2019-04-10T03:04:28.558Z,5.70
2019-04-10T03:06:33.532Z,5.70
2019-04-10T03:08:57.677Z,5.70
2019-04-10T03:10:49.709Z,5.80
2019-04-10T03:12:48.407Z,5.70
2019-04-10T03:14:54.407Z,5.80
2019-04-10T03:16:57.829Z,5.80
2019-04-10T03:19:01.440Z,5.80
2019-04-10T03:21:05.103Z,5.80
2019-04-10T03:23:09.365Z,5.70
2019-04-10T03:25:13.081Z,5.80
2019-04-10T03:27:16.721Z,5.90
2019-04-10T03:29:20.314Z,5.80
2019-04-10T03:31:25.296Z,5.70
2019-04-10T03:33:33.006Z,5.70
2019-04-10T03:35:41.018Z,5.70
2019-04-10T03:37:44.722Z,5.70
2019-04-10T03:39:48.961Z,5.60
2019-04-10T03:41:52.681Z,5.70
2019-04-10T03:43:56.448Z,5.70
2019-04-10T03:46:01.049Z,5.70
2019-04-10T03:48:06.271Z,5.60
2019-04-10T03:50:10.818Z,5.60
2019-04-10T03:52:14.508Z,5.60
2019-04-10T03:54:18.697Z,5.50
2019-04-10T03:56:23.390Z,5.50
2019-04-10T03:58:27.355Z,5.50
2019-04-10T04:00:31.017Z,5.50
2019-04-10T04:02:34.569Z,5.50
2019-04-10T04:04:38.145Z,5.50
2019-04-10T04:06:41.973Z,5.50
2019-04-10T04:08:45.975Z,5.50
2019-04-10T04:10:49.616Z,5.40
2019-04-10T04:12:53.294Z,5.50
2019-04-10T04:14:56.991Z,5.50
2019-04-10T04:17:00.644Z,5.50
2019-04-10T04:19:04.289Z,5.50
2019-04-10T04:21:07.860Z,5.50
2019-04-10T04:23:11.669Z,5.40
2019-04-10T04:25:15.313Z,5.30
2019-04-10T04:27:19.930Z,5.40
2019-04-10T04:29:24.512Z,5.40
2019-04-10T04:31:29.165Z,5.50
2019-04-10T04:33:33.998Z,5.50
2019-04-10T04:35:38.510Z,5.40
2019-04-10T04:37:42.317Z,5.40
2019-04-10T04:39:45.896Z,5.40
2019-04-10T04:41:50.086Z,5.40
2019-04-10T04:43:53.833Z,5.40
2019-04-10T04:45:57.430Z,5.40
2019-04-10T04:48:01.835Z,5.40
2019-04-10T04:50:07.612Z,5.40
2019-04-10T04:52:12.841Z,5.30
2019-04-10T04:54:17.120Z,5.40
2019-04-10T04:56:21.901Z,5.40
2019-04-10T04:58:26.328Z,5.30
2019-04-10T05:00:30.016Z,5.30
2019-04-10T05:02:34.615Z,5.30
2019-04-10T05:04:39.515Z,5.30
2019-04-10T05:06:43.736Z,5.40
2019-04-10T05:08:48.491Z,5.40
2019-04-10T05:10:52.194Z,5.40
2019-04-10T05:12:55.802Z,5.40
2019-04-10T05:15:00.285Z,5.30
2019-04-10T05:17:04.115Z,5.40
2019-04-10T05:19:08.053Z,5.40
2019-04-10T05:21:12.505Z,5.30
2019-04-10T05:23:16.270Z,5.30
2019-04-10T05:25:20.944Z,5.40
2019-04-10T05:27:24.761Z,5.50
2019-04-10T05:29:30.625Z,5.50
2019-04-10T05:31:34.213Z,5.50
2019-04-10T05:33:38.714Z,5.50
2019-04-10T05:35:42.394Z,5.60
2019-04-10T05:37:45.961Z,5.60
2019-04-10T05:39:52.001Z,5.60
2019-04-10T05:41:54.841Z,5.50
2019-04-10T05:43:58.597Z,5.60
2019-04-10T05:46:02.849Z,5.60
2019-04-10T05:48:06.779Z,5.60
2019-04-10T05:50:10.886Z,5.60
2019-04-10T05:52:14.709Z,5.50
2019-04-10T05:54:19.230Z,5.60
2019-04-10T05:56:22.912Z,5.60
2019-04-10T05:58:26.485Z,5.60
2019-04-10T06:00:30.053Z,5.60
2019-04-10T06:02:34.162Z,5.60
2019-04-10T06:04:38.217Z,5.70
2019-04-10T06:06:41.815Z,5.70
2019-04-10T06:08:45.387Z,5.70
2019-04-10T06:10:49.889Z,5.70
2019-04-10T06:12:53.529Z,5.70
2019-04-10T06:14:57.138Z,5.70
2019-04-10T06:17:03.786Z,5.70
2019-04-10T06:19:07.256Z,5.80
2019-04-10T06:21:11.034Z,5.80
2019-04-10T06:23:14.991Z,5.80
2019-04-10T06:25:19.552Z,5.90
2019-04-10T06:27:24.173Z,5.90
2019-04-10T06:29:28.815Z,5.90
2019-04-10T06:31:32.654Z,6.00
2019-04-10T06:33:36.264Z,6.00
2019-04-10T06:35:39.868Z,6.00
2019-04-10T06:37:43.468Z,6.00
2019-04-10T06:39:46.533Z,6.00
2019-04-10T06:41:50.838Z,6.10
2019-04-10T06:43:55.288Z,6.10
2019-04-10T06:45:59.946Z,6.10
2019-04-10T06:48:03.633Z,6.00
2019-04-10T06:50:07.837Z,6.00
2019-04-10T06:52:11.467Z,6.00
2019-04-10T06:54:15.038Z,6.10
2019-04-10T06:56:18.733Z,6.10
2019-04-10T06:58:23.549Z,6.10
2019-04-10T07:00:28.413Z,6.10
2019-04-10T07:02:33.846Z,6.10
2019-04-10T07:04:45.807Z,6.20
2019-04-10T07:06:54.905Z,6.20
2019-04-10T07:08:50.868Z,6.20
2019-04-10T07:11:01.378Z,6.30
2019-04-10T07:12:59.570Z,6.30
2019-04-10T07:15:04.372Z,6.30
2019-04-10T07:17:09.276Z,6.40
2019-04-10T07:19:13.327Z,6.40
2019-04-10T07:21:16.958Z,6.40
2019-04-10T07:23:26.775Z,6.50
2019-04-10T07:25:25.845Z,6.60
2019-04-10T07:27:33.607Z,6.60
2019-04-10T07:29:34.828Z,6.60
2019-04-10T07:31:39.763Z,6.70
2019-04-10T07:33:47.136Z,6.70
2019-04-10T07:35:49.860Z,6.70
2019-04-10T07:37:56.676Z,6.80
2019-04-10T07:40:02.606Z,6.90
2019-04-10T07:42:04.332Z,7.00
2019-04-10T07:44:08.052Z,7.00
2019-04-10T07:46:11.722Z,7.00
2019-04-10T07:48:16.163Z,7.00
2019-04-10T07:50:20.578Z,7.10
2019-04-10T07:52:25.403Z,7.10
2019-04-10T07:54:29.166Z,7.20
2019-04-10T07:56:33.297Z,7.30
2019-04-10T07:58:37.758Z,7.40
2019-04-10T08:00:41.462Z,7.40
2019-04-10T08:02:45.188Z,7.40
2019-04-10T08:04:48.818Z,7.50
2019-04-10T08:06:52.303Z,7.50
2019-04-10T08:08:55.910Z,7.50
2019-04-10T08:10:59.556Z,7.60
2019-04-10T08:13:04.389Z,7.70
2019-04-10T08:15:09.153Z,7.60
2019-04-10T08:17:12.800Z,7.70
2019-04-10T08:19:16.642Z,7.80
2019-04-10T08:21:20.327Z,7.80
2019-04-10T08:23:23.992Z,7.80
2019-04-10T08:25:27.619Z,7.80
2019-04-10T08:27:30.403Z,7.80
2019-04-10T08:29:34.401Z,7.80
2019-04-10T08:31:38.062Z,7.80
2019-04-10T08:33:41.947Z,7.80
2019-04-10T08:35:45.673Z,7.80
2019-04-10T08:37:48.697Z,7.80
2019-04-10T08:39:52.775Z,7.80
2019-04-10T08:41:56.427Z,7.80
2019-04-10T08:43:59.222Z,7.70
2019-04-10T08:46:03.474Z,7.80
2019-04-10T08:48:07.990Z,7.90
2019-04-10T08:50:11.946Z,7.90
2019-04-10T08:52:16.552Z,8.00
2019-04-10T08:54:20.456Z,8.10
2019-04-10T08:56:24.716Z,8.20
2019-04-10T08:58:28.454Z,8.20
2019-04-10T09:00:32.331Z,8.30
2019-04-10T09:02:36.017Z,8.40
2019-04-10T09:04:39.233Z,8.40
2019-04-10T09:06:43.902Z,8.40
2019-04-10T09:08:48.855Z,8.40
2019-04-10T09:10:52.585Z,8.40
2019-04-10T09:12:56.252Z,8.40
2019-04-10T09:14:59.896Z,8.50
2019-04-10T09:17:03.483Z,8.60
2019-04-10T09:19:06.509Z,8.60
2019-04-10T09:21:11.081Z,8.80
2019-04-10T09:23:26.562Z,8.90
2019-04-10T09:25:20.034Z,8.90
2019-04-10T09:27:22.821Z,8.90
2019-04-10T09:29:26.417Z,8.80
2019-04-10T09:31:29.458Z,8.90
2019-04-10T09:33:33.083Z,8.90
2019-04-10T09:35:36.355Z,8.90
2019-04-10T09:37:40.029Z,8.90
2019-04-10T09:39:43.637Z,8.90
2019-04-10T09:41:46.468Z,8.90
2019-04-10T09:43:50.042Z,9.00
2019-04-10T09:45:53.609Z,9.00
2019-04-10T09:47:57.933Z,9.00
2019-04-10T09:50:02.338Z,9.00
2019-04-10T09:52:06.891Z,9.20
2019-04-10T09:54:10.562Z,9.30
2019-04-10T09:56:13.647Z,9.40
2019-04-10T09:58:17.551Z,9.40
2019-04-10T10:00:21.407Z,9.40
2019-04-10T10:02:25.284Z,9.50
2019-04-10T10:04:29.235Z,9.50
2019-04-10T10:06:35.237Z,9.60
2019-04-10T10:08:38.157Z,9.50
2019-04-10T10:10:41.629Z,9.60
2019-04-10T10:12:45.312Z,9.80
2019-04-10T10:14:48.957Z,9.90
2019-04-10T10:16:52.614Z,9.80
2019-04-10T10:18:57.357Z,9.80
2019-04-10T10:21:01.915Z,9.80
2019-04-10T10:23:05.713Z,9.80
2019-04-10T10:25:08.716Z,9.60
2019-04-10T10:27:12.281Z,9.70
2019-04-10T10:29:15.212Z,9.90
2019-04-10T10:31:20.035Z,9.30
2019-04-10T10:33:23.776Z,9.50
2019-04-10T10:35:27.519Z,9.50
2019-04-10T10:37:31.180Z,9.60
2019-04-10T10:39:35.026Z,9.70
2019-04-10T10:41:38.565Z,9.70
2019-04-10T10:43:42.519Z,9.80
2019-04-10T10:45:47.118Z,9.60
2019-04-10T10:47:50.919Z,9.60
2019-04-10T10:49:54.833Z,9.80
2019-04-10T10:51:59.432Z,9.80
2019-04-10T10:54:04.501Z,9.30
2019-04-10T10:56:08.492Z,9.20
2019-04-10T10:58:11.403Z,9.20
2019-04-10T11:00:17.016Z,9.50
2019-04-10T11:02:21.256Z,9.70
2019-04-10T11:04:24.825Z,9.80
2019-04-10T11:06:27.904Z,9.80
2019-04-10T11:08:31.556Z,10.00
2019-04-10T11:10:36.770Z,9.90
2019-04-10T11:12:40.425Z,9.90
2019-04-10T11:14:43.692Z,9.80
2019-04-10T11:16:47.457Z,9.60
2019-04-10T11:18:51.138Z,9.60
2019-04-10T11:21:00.732Z,9.80
2019-04-10T11:23:00.440Z,9.80
2019-04-10T11:25:06.125Z,9.70
2019-04-10T11:27:10.383Z,9.70
2019-04-10T11:29:15.276Z,9.80
2019-04-10T11:31:18.113Z,9.70
2019-04-10T11:33:22.365Z,9.70
2019-04-10T11:35:26.559Z,9.80
2019-04-10T11:39:37.743Z,9.90
2019-04-10T11:41:41.330Z,9.80
2019-04-10T11:43:46.306Z,9.60
2019-04-10T11:45:53.789Z,9.60
2019-04-10T11:47:56.462Z,9.60
2019-04-10T11:50:01.580Z,9.50
2019-04-10T11:52:06.249Z,9.60
2019-04-10T11:54:13.043Z,9.60
2019-04-10T11:56:17.977Z,9.70
2019-04-10T11:58:21.785Z,9.80
2019-04-10T12:00:49.260Z,9.70
2019-04-10T12:02:47.496Z,9.70
2019-04-10T12:04:56.060Z,9.60
2019-04-10T12:06:57.884Z,9.60
2019-04-10T12:09:19.499Z,9.60
2019-04-10T12:11:10.793Z,9.60
2019-04-10T12:13:12.452Z,9.40
2019-04-10T12:15:17.233Z,9.50
2019-04-10T12:17:22.117Z,9.50
2019-04-10T12:19:26.889Z,9.60
2019-04-10T12:21:31.594Z,9.80
2019-04-10T12:23:35.395Z,9.80
2019-04-10T12:25:38.790Z,9.50
2019-04-10T12:27:42.613Z,9.50
2019-04-10T12:29:46.732Z,9.60
2019-04-10T12:31:50.353Z,9.70
2019-04-10T12:33:53.093Z,9.90
2019-04-10T12:35:56.695Z,9.80
2019-04-10T12:38:05.407Z,9.70
2019-04-10T12:40:07.672Z,9.70
2019-04-10T12:42:12.224Z,9.70
2019-04-10T12:44:15.950Z,9.80
2019-04-10T12:46:19.107Z,9.90
2019-04-10T12:48:23.067Z,10.10
2019-04-10T12:50:28.672Z,10.10
2019-04-10T12:52:32.468Z,10.10
2019-04-10T12:54:36.034Z,10.20
2019-04-10T12:56:40.089Z,10.20
2019-04-10T12:58:44.690Z,10.30
2019-04-10T13:00:48.412Z,10.30
2019-04-10T13:02:52.229Z,10.30
2019-04-10T13:04:56.606Z,10.30
2019-04-10T13:07:00.297Z,10.20
2019-04-10T13:09:09.243Z,10.30
2019-04-10T13:11:10.125Z,10.30
2019-04-10T13:13:13.858Z,10.40
2019-04-10T13:15:16.780Z,10.50
2019-04-10T13:17:20.432Z,10.70
2019-04-10T13:19:24.908Z,10.60
2019-04-10T13:21:28.569Z,10.80
2019-04-10T13:23:31.357Z,10.80
2019-04-10T13:25:35.186Z,10.80
2019-04-10T13:27:38.994Z,10.80
2019-04-10T13:29:42.718Z,10.70
2019-04-10T13:31:46.712Z,10.70
2019-04-10T13:33:51.082Z,10.60
2019-04-10T13:35:55.405Z,10.60
2019-04-10T13:37:59.134Z,10.60
2019-04-10T13:40:02.137Z,10.50
2019-04-10T13:42:07.187Z,10.40
2019-04-10T13:44:10.955Z,10.30
2019-04-10T13:46:13.773Z,10.30
2019-04-10T13:48:17.429Z,10.40
2019-04-10T13:50:22.146Z,10.40
2019-04-10T13:52:26.003Z,10.20
2019-04-10T13:54:30.493Z,10.10
2019-04-10T13:56:34.123Z,10.00
2019-04-10T13:58:36.933Z,10.00
2019-04-10T14:00:41.622Z,9.90
2019-04-10T14:02:45.760Z,9.90
2019-04-10T14:04:49.506Z,9.90
2019-04-10T14:06:53.607Z,9.90
2019-04-10T14:09:11.593Z,9.90
2019-04-10T14:11:03.201Z,9.80
2019-04-10T14:13:07.456Z,9.60
2019-04-10T14:15:11.861Z,9.60
2019-04-10T14:17:15.542Z,9.60
2019-04-10T14:19:19.354Z,9.70
2019-04-10T14:21:22.947Z,9.70
2019-04-10T14:23:28.605Z,9.70
2019-04-10T14:25:42.863Z,9.90
2019-04-10T14:27:46.720Z,9.90
2019-04-10T14:29:51.050Z,9.90
2019-04-10T14:32:00.756Z,9.80
2019-04-10T14:34:04.993Z,9.80
2019-04-10T14:36:09.143Z,9.80
2019-04-10T14:38:12.038Z,9.70
2019-04-10T14:40:16.028Z,9.60
2019-04-10T14:42:19.783Z,9.60
2019-04-10T14:44:23.516Z,9.60
2019-04-10T14:46:28.327Z,9.60
2019-04-10T14:48:32.334Z,9.60
2019-04-10T14:50:36.266Z,9.50
2019-04-10T14:52:39.931Z,9.50
2019-04-10T14:54:43.924Z,9.50
2019-04-10T14:56:48.445Z,9.40
2019-04-10T14:58:52.966Z,9.40
2019-04-10T15:00:58.173Z,9.40
2019-04-10T15:03:02.210Z,9.40
2019-04-10T15:05:08.085Z,9.50
2019-04-10T15:07:12.284Z,9.50
2019-04-10T15:09:24.002Z,9.50
2019-04-10T15:11:24.758Z,9.50
2019-04-10T15:13:29.587Z,9.50
2019-04-10T15:15:34.302Z,9.50
2019-04-10T15:17:38.165Z,9.60
2019-04-10T15:19:42.674Z,9.50
2019-04-10T15:21:47.140Z,9.50
2019-04-10T15:23:51.112Z,9.50
2019-04-10T15:25:55.482Z,9.50
2019-04-10T15:28:00.158Z,9.50
2019-04-10T15:30:06.874Z,9.40
2019-04-10T15:32:10.674Z,9.30
2019-04-10T15:34:14.404Z,9.30
2019-04-10T15:36:18.059Z,9.30
2019-04-10T15:38:22.010Z,9.30
2019-04-10T15:40:28.648Z,9.20
2019-04-10T15:42:32.416Z,9.30
2019-04-10T15:44:36.293Z,9.30
2019-04-10T15:46:40.022Z,9.20
2019-04-10T15:48:44.030Z,9.20
2019-04-10T15:50:51.723Z,9.20
2019-04-10T15:52:55.814Z,9.10
2019-04-10T15:54:59.502Z,9.00
2019-04-10T15:57:02.694Z,9.00
2019-04-10T15:59:06.365Z,9.00
2019-04-10T16:01:11.867Z,9.00
2019-04-10T16:03:15.510Z,8.90
2019-04-10T16:05:19.493Z,8.90
2019-04-10T16:07:24.468Z,8.90
2019-04-10T16:09:28.135Z,9.00
2019-04-10T16:11:39.469Z,8.90
2019-04-10T16:13:44.688Z,9.00
2019-04-10T16:15:48.334Z,9.00
2019-04-10T16:17:52.796Z,9.10
2019-04-10T16:20:13.539Z,9.00
2019-04-10T16:22:19.233Z,9.00
2019-04-10T16:24:22.918Z,9.00
2019-04-10T16:26:27.234Z,9.00
2019-04-10T16:28:31.446Z,8.90
2019-04-10T16:30:35.194Z,8.80
2019-04-10T16:32:39.701Z,8.80
2019-04-10T16:34:43.381Z,8.80
2019-04-10T16:36:46.166Z,8.80
2019-04-10T16:38:51.127Z,8.80
2019-04-10T16:40:54.826Z,8.70
2019-04-10T16:42:57.860Z,8.70
2019-04-10T16:45:01.794Z,8.80
2019-04-10T16:47:05.864Z,8.80
2019-04-10T16:49:10.593Z,8.80
2019-04-10T16:51:14.308Z,8.80
2019-04-10T16:53:18.128Z,8.80
2019-04-10T16:55:22.767Z,8.80
2019-04-10T16:57:26.814Z,8.70
2019-04-10T16:59:30.430Z,8.70
2019-04-10T17:01:33.354Z,8.70
2019-04-10T17:03:37.940Z,8.70
2019-04-10T17:05:41.937Z,8.70
2019-04-10T17:07:45.651Z,8.70
2019-04-10T17:09:50.442Z,8.70
2019-04-10T17:11:56.140Z,8.70
2019-04-10T17:14:00.090Z,8.60
2019-04-10T17:16:05.156Z,8.60
2019-04-10T17:18:08.896Z,8.60
2019-04-10T17:20:14.055Z,8.60
2019-04-10T17:22:31.148Z,8.60
2019-04-10T17:24:23.098Z,8.60
2019-04-10T17:26:26.685Z,8.60
2019-04-10T17:28:30.412Z,8.60
2019-04-10T17:30:34.176Z,8.50
2019-04-10T17:32:38.486Z,8.50
2019-04-10T17:34:43.105Z,8.50
2019-04-10T17:36:47.360Z,8.50
2019-04-10T17:38:51.123Z,8.40
2019-04-10T17:40:57.654Z,8.40
2019-04-10T17:43:01.010Z,8.40
2019-04-10T17:45:06.503Z,8.40
2019-04-10T17:47:10.223Z,8.40
2019-04-10T17:49:14.948Z,8.40
2019-04-10T17:51:19.762Z,8.30
2019-04-10T17:53:23.400Z,8.30
2019-04-10T17:55:27.332Z,8.30
2019-04-10T17:57:38.081Z,8.40
2019-04-10T17:59:36.436Z,8.30
2019-04-10T18:01:41.117Z,8.30
2019-04-10T18:03:51.628Z,8.30
2019-04-10T18:05:50.945Z,8.30
2019-04-10T18:07:54.668Z,8.30
2019-04-10T18:09:58.144Z,8.30
2019-04-10T18:12:03.834Z,8.40
2019-04-10T18:14:09.020Z,8.30
2019-04-10T18:16:12.739Z,8.30
2019-04-10T18:18:15.849Z,8.20
2019-04-10T18:20:19.965Z,8.20
2019-04-10T18:22:24.640Z,8.20
2019-04-10T18:24:28.450Z,8.20
2019-04-10T18:26:32.165Z,8.20
2019-04-10T18:28:36.510Z,8.20
2019-04-10T18:30:40.621Z,8.20
2019-04-10T18:32:45.535Z,8.30
2019-04-10T18:34:50.019Z,8.20
2019-04-10T18:36:54.538Z,8.20
2019-04-10T18:38:58.264Z,8.20
2019-04-10T18:41:05.220Z,8.20
2019-04-10T18:43:07.655Z,8.20
2019-04-10T18:45:11.752Z,8.20
2019-04-10T18:47:16.465Z,8.20
2019-04-10T18:49:21.084Z,8.10
2019-04-10T18:51:25.789Z,8.20
2019-04-10T18:53:29.585Z,8.20
2019-04-10T18:55:33.216Z,8.20
2019-04-10T18:57:36.050Z,8.20
2019-04-10T18:59:44.845Z,8.10
2019-04-10T19:01:53.591Z,8.20
2019-04-10T19:04:02.598Z,8.10
2019-04-10T19:06:12.415Z,8.10
2019-04-10T19:08:16.465Z,8.20
2019-04-10T19:10:20.110Z,8.10
2019-04-10T19:12:24.407Z,8.10
2019-04-10T19:14:28.233Z,8.10
2019-04-10T19:16:33.148Z,8.20
2019-04-10T19:18:37.533Z,8.20
2019-04-10T19:20:41.176Z,8.20
2019-04-10T19:22:44.671Z,8.10
2019-04-10T19:24:48.345Z,8.10
2019-04-10T19:26:51.615Z,8.20
2019-04-10T19:28:55.297Z,8.10
2019-04-10T19:31:12.883Z,8.10
2019-04-10T19:33:08.657Z,8.10
2019-04-10T19:35:12.915Z,8.10
2019-04-10T19:37:16.584Z,8.10
2019-04-10T19:39:20.218Z,8.10
2019-04-10T19:41:30.772Z,8.10
2019-04-10T19:43:30.579Z,8.00
2019-04-10T19:45:36.231Z,8.00
2019-04-10T19:47:39.879Z,7.80
2019-04-10T19:49:42.671Z,7.90
2019-04-10T19:51:46.741Z,7.80
2019-04-10T19:53:51.234Z,7.80
2019-04-10T19:55:55.934Z,7.90
2019-04-10T19:57:59.756Z,7.80
2019-04-10T20:00:08.324Z,7.80
2019-04-10T20:02:12.847Z,7.80
2019-04-10T20:04:17.344Z,7.80
2019-04-10T20:06:22.758Z,7.80
2019-04-10T20:08:27.874Z,7.80
2019-04-10T20:10:35.182Z,7.70
2019-04-10T20:12:38.782Z,7.80
2019-04-10T20:14:41.639Z,7.80
2019-04-10T20:16:45.256Z,7.80
2019-04-10T20:18:48.719Z,7.70
2019-04-10T20:20:53.301Z,7.70
2019-04-10T20:22:58.091Z,7.60
2019-04-10T20:25:02.260Z,7.60
2019-04-10T20:27:05.898Z,7.50
2019-04-10T20:29:10.733Z,7.50
2019-04-10T20:31:17.168Z,7.40
2019-04-10T20:33:20.940Z,7.40
2019-04-10T20:35:25.148Z,7.30
2019-04-10T20:37:29.062Z,7.30
2019-04-10T20:39:33.611Z,7.20
2019-04-10T20:41:46.526Z,7.20
2019-04-10T20:43:42.843Z,7.20
2019-04-10T20:45:47.517Z,7.20
2019-04-10T20:47:51.914Z,7.20
2019-04-10T20:49:55.820Z,7.20
2019-04-10T20:51:59.392Z,7.20
2019-04-10T20:54:02.401Z,7.20
2019-04-10T20:56:06.268Z,7.20
2019-04-10T20:58:11.231Z,7.10
2019-04-10T21:00:20.389Z,7.10
2019-04-10T21:02:24.407Z,7.00
2019-04-10T21:04:28.130Z,6.90
2019-04-10T21:06:31.835Z,6.90
2019-04-10T21:08:36.310Z,6.80
2019-04-10T21:10:40.888Z,6.80
2019-04-10T21:12:44.609Z,6.70
2019-04-10T21:14:48.204Z,6.70
2019-04-10T21:16:51.950Z,6.70
2019-04-10T21:18:55.973Z,6.70
2019-04-10T21:20:59.648Z,6.70
2019-04-10T21:23:03.432Z,6.60
2019-04-10T21:25:08.256Z,6.60
2019-04-10T21:27:11.950Z,6.50
2019-04-10T21:29:16.476Z,6.50
2019-04-10T21:31:27.534Z,6.60
2019-04-10T21:33:38.908Z,6.50
2019-04-10T21:35:43.714Z,6.40
2019-04-10T21:37:48.418Z,6.40
2019-04-10T21:39:52.374Z,6.40
2019-04-10T21:42:07.845Z,6.40
2019-04-10T21:44:02.183Z,6.40
2019-04-10T21:46:06.164Z,6.40
2019-04-10T21:48:10.526Z,6.50
2019-04-10T21:50:15.168Z,6.40
2019-04-10T21:52:18.893Z,6.40
2019-04-10T21:54:24.788Z,6.40
2019-04-10T21:56:28.752Z,6.40
2019-04-10T21:58:32.457Z,6.40
2019-04-10T22:00:53.758Z,6.30
2019-04-10T22:02:57.392Z,6.30
2019-04-10T22:05:00.958Z,6.30
2019-04-10T22:07:23.705Z,6.30
2019-04-10T22:09:39.057Z,6.30
2019-04-10T22:11:45.508Z,6.20
2019-04-10T22:13:49.226Z,6.30
2019-04-10T22:15:53.236Z,6.30
2019-04-10T22:17:57.061Z,6.20
2019-04-10T22:20:01.291Z,6.20
2019-04-10T22:22:06.194Z,6.20
2019-04-10T22:24:09.893Z,6.20
2019-04-10T22:26:13.822Z,6.20
2019-04-10T22:28:17.614Z,6.20
2019-04-10T22:30:21.503Z,6.10
2019-04-10T22:32:25.072Z,6.10
2019-04-10T22:34:27.934Z,6.10
2019-04-10T22:36:31.503Z,6.10
2019-04-10T22:38:34.326Z,6.10
2019-04-10T22:40:37.928Z,6.10
2019-04-10T22:42:46.064Z,6.10
2019-04-10T22:44:47.182Z,6.10
2019-04-10T22:46:52.284Z,6.10
2019-04-10T22:48:56.016Z,6.10
2019-04-10T22:50:59.654Z,6.10
2019-04-10T22:53:03.257Z,6.10
2019-04-10T22:55:07.179Z,6.10
2019-04-10T22:57:10.753Z,6.00
2019-04-10T22:59:13.666Z,6.00
2019-04-10T23:01:18.544Z,6.00
2019-04-10T23:03:22.413Z,6.00
2019-04-10T23:05:26.810Z,5.90
2019-04-10T23:07:30.516Z,5.90
2019-04-10T23:09:33.293Z,5.90
2019-04-10T23:11:41.739Z,5.90
2019-04-10T23:13:42.532Z,5.90
2019-04-10T23:15:47.372Z,5.90
2019-04-10T23:17:51.261Z,5.90
2019-04-10T23:19:54.833Z,5.80
2019-04-10T23:21:57.783Z,5.80
2019-04-10T23:24:01.409Z,5.80
2019-04-10T23:26:05.206Z,5.80
2019-04-10T23:28:09.511Z,5.80
2019-04-10T23:30:18.695Z,5.80
2019-04-10T23:32:23.565Z,5.80
2019-04-10T23:34:28.362Z,5.80
2019-04-10T23:36:32.137Z,5.80
2019-04-10T23:38:35.757Z,5.80
2019-04-10T23:40:39.403Z,5.80
2019-04-10T23:42:44.094Z,5.80
2019-04-10T23:44:47.793Z,5.80
2019-04-10T23:46:51.721Z,5.80
2019-04-10T23:48:55.431Z,5.80
2019-04-10T23:50:59.005Z,5.80
2019-04-10T23:53:02.604Z,5.70
2019-04-10T23:55:08.067Z,5.70
2019-04-10T23:57:11.664Z,5.70
2019-04-10T23:59:15.367Z,5.70
